LFMLLIEE

Guest
Details From LFML - Marseille/provence
To LIEE - Cagliari Elmas
Flight Number -
Tags Generated
Created
Modified
Stats Distance 305 nm / 565 km
Max Altitude 0 ft / 0 m
Waypoints 3
Social Downloads 2
Likes 0
Share VATSIM

Download

Looking for another format? Having issues loading an existing format? Contact us
Advertisement - Login to hide

Notes

Generated

Route

LFML DEC10 LIEE

ID Type Via Altitude (ft/m) Position (lat/lon) Dist (leg/tot) Name
O LFML APT - 0 / 0 43.44093 / 5.20362 - / 0 nm
DEC10 FIX - 0 / 0 39.51440 / 8.83595 286 / 286 nm
O LIEE APT - 0 / 0 39.26081 / 9.04347 18 / 304 nm

Altitude Profile

Advertisement - Login to hide

Weather


0- 5 10 15 20 25 30 35+ Temperature / °C

Clouds and Precipitation
Forecast for 2018-10-23 12:00 UTC. Updated a few seconds ago

Ground ~20,000 ft ~40,000 ft Winds

LFML

Details ICAO LFML (MRS)
Name Marseille Provence
Region France
Timezone Europe/Paris (UTC+2.0)
Stats Elevation 74 ft / 23 m (AMSL)
Location 43.435800° 5.213420°
Runways 2
Magnetic Variation 1.650° E

METAR

LFML 230930Z AUTO 36006KT CAVOK 16/08 Q1024 NOSIG

Decode

TAF

TAF TAF LFML 230800Z 2309/2415 VRB05KT CAVOK TX20/2315Z TN13/2400Z BECMG 2314/2315 32010KT BECMG 2320/2322 VRB05KT BECMG 2406/2408 34010KT

Decode

Departure Runways

ID Width Length Bearing (true/mag) Surface Threshold Overrun Markings Lighting
13L 148 ft / 45 m 11,489 ft / 3,502 m 134.03° / 132.38° ASPHALT 1,115 ft / 340 m 295 ft / 90 m VISUAL CENTERLINE EDGE THRESHOLD ALSF-I TDZ REIL-OMNI
13R 148 ft / 45 m 7,783 ft / 2,372 m 134.89° / 133.24° ASPHALT 0 ft / 0 m 190 ft / 58 m APP EDGE THRESHOLD REIL-OMNI
31L 148 ft / 45 m 7,783 ft / 2,372 m 314.91° / 313.26° ASPHALT 344 ft / 105 m 197 ft / 60 m APP EDGE THRESHOLD REIL-OMNI
31R 148 ft / 45 m 11,489 ft / 3,502 m 314.06° / 312.41° ASPHALT 2,165 ft / 660 m 331 ft / 101 m VISUAL CENTERLINE EDGE THRESHOLD ALSF-I TDZ REIL-OMNI

LIEE

Details ICAO LIEE (CAG)
Name Cagliari Elmas
Region Italy
Timezone Europe/Rome (UTC+2.0)
Stats Elevation 13 ft / 4 m (AMSL)
Location 39.251500° 9.054330°
Runways 1
Magnetic Variation 2.385° E

METAR

LIEE 230920Z 32011KT CAVOK 19/11 Q1020

Decode

TAF

TAF LIEE 230500Z 2306/2406 34015KT CAVOK

Decode

Destination Runways

ID Width Length Bearing (true/mag) Surface Threshold Overrun Markings Lighting
14 148 ft / 45 m 9,200 ft / 2,804 m 138.08° / 135.70° ASPHALT 0 ft / 0 m 0 ft / 0 m PREC-APP EDGE THRESHOLD REIL-OMNI
32 148 ft / 45 m 9,200 ft / 2,804 m 318.10° / 315.71° ASPHALT 0 ft / 0 m 0 ft / 0 m PREC-APP EDGE THRESHOLD ALSF-I REIL-OMNI

Approach Navaids

Runway Type Ident Frequency Range Bearing (true/mag) Slope Elevation
32 LOC-ILS IEL 109.50 MHz 18 nm / 33 km 318.10° / 315.72 ° - 13 ft / 4 m (AMSL)
32 OM OM - - 318.08° / 315.70 ° - 13 ft / 4 m (AMSL)
32 DME IEL 109.50 MHz 18 nm / 33 km - - 26 ft / 8 m (AMSL)
32 GS IEL 109.50 MHz 10 nm / 19 km 318.10° / 315.72 ° 3.00° 13 ft / 4 m (AMSL)
32 MM MM - - 318.08° / 315.70 ° - 13 ft / 4 m (AMSL)

Popular Alternatives